Time;durP1;ratioP1;P1;durP2;ratioP2;P2;SDS_P1;SDS_P2;PMS_P1;PMS_P2;Temp;Humidity;BMP_temperature;BMP_pressure;BME280_temperature;BME280_humidity;BME280_pressure;Samples;Min_cycle;Max_cycle;Signal;HPM_P1;HPM_P2
2023/05/23 00:02:06;;;;;;;2.23;2.03;;;;;15.30;95895.00;;;;5035147;28;20196;-55
2023/05/23 00:04:35;;;;;;;3.10;1.77;;;;;15.30;95892.00;;;;5033876;28;20192;-55
2023/05/23 00:07:03;;;;;;;2.77;2.00;;;;;15.40;95890.00;;;;5035094;28;20208;-55
2023/05/23 00:09:30;;;;;;;2.73;2.53;;;;;15.30;95894.00;;;;5035003;28;20251;-56
2023/05/23 00:11:58;;;;;;;1.90;1.80;;;;;15.40;95896.00;;;;5033754;28;20222;-56
2023/05/23 00:14:26;;;;;;;2.17;1.97;;;;;15.40;95891.00;;;;5033583;28;20221;-56
2023/05/23 00:16:54;;;;;;;2.17;2.07;;;;;15.40;95895.00;;;;5034775;28;20267;-56
2023/05/23 00:19:21;;;;;;;2.37;2.17;;;;;15.40;95892.00;;;;5034806;28;20196;-56
2023/05/23 00:21:49;;;;;;;2.00;1.90;;;;;15.50;95884.00;;;;5035034;28;20208;-57
2023/05/23 00:24:17;;;;;;;3.20;2.93;;;;;15.50;95891.00;;;;5034786;28;20188;-55
2023/05/23 00:26:45;;;;;;;2.77;2.53;;;;;15.60;95885.00;;;;5034618;28;20220;-57
2023/05/23 00:29:15;;;;;;;2.20;2.07;;;;;15.50;95885.00;;;;5034740;28;20192;-55
2023/05/23 00:31:45;;;;;;;1.33;1.33;;;;;15.40;95888.00;;;;5035510;28;20189;-55
2023/05/23 00:34:13;;;;;;;1.47;1.40;;;;;15.30;95893.00;;;;5033290;28;20766;-56
2023/05/23 00:36:40;;;;;;;2.43;2.33;;;;;15.30;95893.00;;;;5034477;28;20263;-55
2023/05/23 00:39:08;;;;;;;1.43;1.40;;;;;15.30;95889.00;;;;5034464;28;20667;-55
2023/05/23 00:41:36;;;;;;;2.93;2.73;;;;;15.30;95893.00;;;;5034724;28;20228;-55
2023/05/23 00:44:04;;;;;;;2.63;2.43;;;;;15.30;95890.00;;;;5034346;28;20239;-56
2023/05/23 00:46:32;;;;;;;4.10;3.13;;;;;15.40;95896.00;;;;5034600;28;20578;-58
2023/05/23 00:49:00;;;;;;;2.73;2.03;;;;;15.40;95889.00;;;;5034153;28;20197;-56
2023/05/23 00:51:28;;;;;;;3.97;3.57;;;;;15.30;95892.00;;;;5034175;28;20201;-56
2023/05/23 00:53:58;;;;;;;1.80;1.70;;;;;15.10;95894.00;;;;5034365;28;20646;-56
2023/05/23 00:56:26;;;;;;;1.37;1.27;;;;;15.20;95897.00;;;;5034040;28;20217;-56
2023/05/23 00:58:54;;;;;;;4.00;2.33;;;;;15.30;95903.00;;;;5033633;28;20656;-56
2023/05/23 01:01:23;;;;;;;1.70;1.60;;;;;15.30;95908.00;;;;5037599;22;20305;-59
2023/05/23 01:03:50;;;;;;;3.00;2.80;;;;;15.30;95910.00;;;;5014513;28;20611;-59
2023/05/23 01:06:21;;;;;;;1.47;1.37;;;;;15.40;95905.00;;;;5014495;28;20555;-59
2023/05/23 01:08:49;;;;;;;1.90;1.80;;;;;15.30;95906.00;;;;5014278;28;20185;-60
2023/05/23 01:11:26;;;;;;;2.40;2.27;;;;;15.40;95903.00;;;;5014119;28;20215;-59
2023/05/23 01:13:59;;;;;;;1.77;1.67;;;;;15.50;95913.00;;;;5014067;28;20178;-59
2023/05/23 01:16:34;;;;;;;2.33;2.23;;;;;15.60;95897.00;;;;5014412;28;20244;-59
2023/05/23 01:19:13;;;;;;;4.27;3.97;;;;;15.60;95908.00;;;;5014284;28;20177;-59
2023/05/23 01:21:45;;;;;;;2.10;2.00;;;;;15.50;95904.00;;;;5014175;28;20267;-59
2023/05/23 01:24:36;;;;;;;7.77;3.80;;;;;15.50;95906.00;;;;5014227;28;20178;-59
2023/05/23 01:27:15;;;;;;;4.77;3.40;;;;;15.60;95910.00;;;;5012697;28;20194;-59
2023/05/23 01:29:46;;;;;;;2.17;2.07;;;;;15.70;95905.00;;;;5014457;28;20181;-59
2023/05/23 01:32:15;;;;;;;2.40;2.20;;;;;15.70;95908.00;;;;5013902;28;20212;-59
2023/05/23 01:34:43;;;;;;;3.90;3.13;;;;;15.80;95916.00;;;;5013947;28;20577;-59
2023/05/23 01:37:13;;;;;;;25.30;3.67;;;;;15.80;95914.00;;;;5013755;28;20197;-62
2023/05/23 01:39:40;;;;;;;3.97;3.23;;;;;15.80;95919.00;;;;5013879;28;20198;-59
2023/05/23 01:42:09;;;;;;;3.73;2.63;;;;;15.70;95914.00;;;;5012376;28;20221;-59
2023/05/23 01:44:38;;;;;;;6.27;2.70;;;;;15.70;95910.00;;;;5013698;28;20210;-59
2023/05/23 01:47:09;;;;;;;4.50;4.10;;;;;15.70;95906.00;;;;5013674;28;20196;-60
2023/05/23 01:49:38;;;;;;;3.47;3.27;;;;;15.80;95903.00;;;;5013650;28;20177;-59
2023/05/23 01:52:08;;;;;;;4.20;3.83;;;;;15.90;95915.00;;;;5012284;28;20217;-60
2023/05/23 01:54:37;;;;;;;4.30;3.63;;;;;15.80;95913.00;;;;5013520;28;20208;-60
2023/05/23 01:57:06;;;;;;;5.60;3.90;;;;;15.90;95914.00;;;;5013476;28;20193;-60
2023/05/23 01:59:33;;;;;;;8.53;6.37;;;;;16.10;95920.00;;;;5013533;28;20209;-60
2023/05/23 02:02:01;;;;;;;4.97;4.57;;;;;16.00;95916.00;;;;5013291;28;20233;-60
2023/05/23 02:04:30;;;;;;;4.70;4.30;;;;;15.90;95915.00;;;;5013973;28;20236;-60
2023/05/23 02:06:58;;;;;;;3.20;3.00;;;;;15.90;95916.00;;;;5013459;28;20252;-60
2023/05/23 02:09:25;;;;;;;8.00;3.77;;;;;15.90;95911.00;;;;5013975;28;20202;-60
2023/05/23 02:11:53;;;;;;;3.40;3.10;;;;;15.90;95916.00;;;;5016459;28;20225;-60
2023/05/23 02:14:20;;;;;;;3.77;3.13;;;;;15.90;95910.00;;;;5017637;28;20581;-61
2023/05/23 02:16:48;;;;;;;6.23;5.63;;;;;15.90;95909.00;;;;5016090;28;20543;-61
2023/05/23 02:19:15;;;;;;;6.73;5.60;;;;;16.00;95914.00;;;;5017367;28;20279;-60
2023/05/23 02:21:44;;;;;;;6.87;4.63;;;;;16.10;95920.00;;;;5017317;28;20217;-60
2023/05/23 02:24:11;;;;;;;13.53;7.07;;;;;16.00;95915.00;;;;5017250;28;20193;-61
2023/05/23 02:26:39;;;;;;;3.33;3.13;;;;;16.00;95915.00;;;;5017459;28;20198;-60
2023/05/23 02:29:06;;;;;;;2.37;2.23;;;;;15.90;95915.00;;;;5017372;28;20194;-60
2023/05/23 02:31:34;;;;;;;6.57;6.13;;;;;15.90;95918.00;;;;5017046;28;20213;-60
2023/05/23 02:34:01;;;;;;;3.60;3.40;;;;;15.80;95915.00;;;;5017065;28;20252;-61
2023/05/23 02:36:28;;;;;;;4.37;3.97;;;;;15.70;95919.00;;;;5016894;28;20679;-60
2023/05/23 02:38:57;;;;;;;3.93;3.40;;;;;15.70;95916.00;;;;5016939;28;20197;-61
2023/05/23 02:41:25;;;;;;;4.53;3.97;;;;;15.70;95921.00;;;;5016842;28;20217;-60
2023/05/23 02:43:53;;;;;;;5.13;4.40;;;;;15.80;95922.00;;;;5016845;28;20194;-60
2023/05/23 02:46:20;;;;;;;4.27;3.87;;;;;15.80;95917.00;;;;5017088;28;20193;-60
2023/05/23 02:48:47;;;;;;;20.30;3.87;;;;;15.90;95922.00;;;;5017608;28;20201;-60
2023/05/23 02:51:15;;;;;;;4.37;4.07;;;;;15.90;95918.00;;;;5016704;28;20225;-60
2023/05/23 02:53:42;;;;;;;5.50;4.37;;;;;15.80;95916.00;;;;5017511;28;20193;-61
2023/05/23 02:56:12;;;;;;;3.93;2.87;;;;;15.90;95923.00;;;;5017349;28;20221;-61
2023/05/23 02:58:40;;;;;;;5.40;4.87;;;;;16.00;95921.00;;;;5017413;28;20249;-60
2023/05/23 03:01:08;;;;;;;4.50;4.13;;;;;15.90;95923.00;;;;5016842;28;20231;-61
2023/05/23 03:03:35;;;;;;;7.60;4.60;;;;;15.90;95925.00;;;;5016745;28;20284;-60
2023/05/23 03:06:05;;;;;;;7.37;5.93;;;;;16.00;95921.00;;;;5016741;28;20587;-60
2023/05/23 03:08:32;;;;;;;5.10;4.63;;;;;16.00;95920.00;;;;5016431;28;20560;-60
2023/05/23 03:11:00;;;;;;;5.53;5.00;;;;;16.10;95923.00;;;;5016313;28;20224;-60
2023/05/23 03:13:30;;;;;;;5.57;5.17;;;;;16.00;95922.00;;;;5016352;28;20248;-60
2023/05/23 03:15:57;;;;;;;6.50;5.73;;;;;16.10;95927.00;;;;5016193;28;20217;-60
2023/05/23 03:18:25;;;;;;;5.97;5.57;;;;;16.10;95922.00;;;;5016207;28;20193;-60
2023/05/23 03:20:52;;;;;;;5.53;5.07;;;;;16.10;95926.00;;;;5016433;28;20217;-59
2023/05/23 03:23:19;;;;;;;19.07;6.03;;;;;16.10;95931.00;;;;5016003;28;20212;-60
2023/05/23 03:25:47;;;;;;;5.63;5.23;;;;;16.10;95935.00;;;;5016048;28;20190;-60
2023/05/23 03:28:14;;;;;;;7.17;6.33;;;;;16.10;95940.00;;;;5016005;28;20660;-60
2023/05/23 03:30:43;;;;;;;8.50;6.87;;;;;16.10;95932.00;;;;5015920;28;20312;-60
2023/05/23 03:33:11;;;;;;;6.77;6.10;;;;;16.00;95937.00;;;;5014685;28;20197;-60
2023/05/23 03:35:39;;;;;;;5.83;4.57;;;;;16.10;95936.00;;;;5015801;28;20221;-60
2023/05/23 03:38:06;;;;;;;6.67;5.57;;;;;16.00;95927.00;;;;5016117;28;20346;-60
2023/05/23 03:40:33;;;;;;;4.93;4.50;;;;;15.90;95930.00;;;;5015918;28;20221;-60
2023/05/23 03:43:05;;;;;;;12.07;5.13;;;;;15.90;95925.00;;;;5015840;28;20197;-60
2023/05/23 03:45:33;;;;;;;9.77;5.40;;;;;16.00;95929.00;;;;5015923;28;20584;-60
2023/05/23 03:48:02;;;;;;;5.50;4.73;;;;;16.00;95935.00;;;;5015612;28;20194;-60
2023/05/23 03:50:30;;;;;;;5.60;5.17;;;;;15.90;95933.00;;;;5014249;28;20252;-60
2023/05/23 03:52:57;;;;;;;6.17;5.57;;;;;15.90;95926.00;;;;5015526;28;20200;-60
2023/05/23 03:55:25;;;;;;;5.57;5.10;;;;;15.80;95936.00;;;;5015500;28;20235;-60
2023/05/23 03:57:53;;;;;;;6.33;5.27;;;;;15.70;95932.00;;;;5015459;28;20657;-60
2023/05/23 04:00:20;;;;;;;7.00;6.13;;;;;15.90;95934.00;;;;5015185;28;20299;-60
2023/05/23 04:02:48;;;;;;;6.80;6.17;;;;;16.00;95932.00;;;;5015654;28;20224;-60
2023/05/23 04:05:17;;;;;;;4.70;4.30;;;;;16.00;95936.00;;;;5015321;28;20198;-60
2023/05/23 04:07:45;;;;;;;5.13;4.63;;;;;16.00;95938.00;;;;5013954;28;20198;-61
2023/05/23 04:10:13;;;;;;;5.03;4.63;;;;;15.90;95943.00;;;;5015236;28;20193;-60
2023/05/23 04:12:41;;;;;;;5.53;5.03;;;;;15.90;95945.00;;;;5015201;28;20198;-60
2023/05/23 04:15:10;;;;;;;9.90;5.37;;;;;15.80;95938.00;;;;5015346;28;20571;-60
2023/05/23 04:17:37;;;;;;;3.93;3.53;;;;;15.90;95938.00;;;;5015073;28;20652;-60
2023/05/23 04:20:08;;;;;;;6.00;5.40;;;;;16.00;95937.00;;;;5014967;28;20198;-61
2023/05/23 04:22:37;;;;;;;5.53;4.50;;;;;15.90;95940.00;;;;5015288;28;20709;-61
2023/05/23 04:25:05;;;;;;;5.27;3.87;;;;;16.00;95940.00;;;;5014981;28;20202;-60
2023/05/23 04:27:38;;;;;;;5.73;4.87;;;;;16.10;95947.00;;;;5013658;28;20292;-61
2023/05/23 04:30:09;;;;;;;4.80;4.00;;;;;16.00;95953.00;;;;5015137;28;20212;-60
2023/05/23 04:32:37;;;;;;;5.47;4.70;;;;;16.00;95949.00;;;;5014482;28;20576;-61
2023/05/23 04:35:04;;;;;;;8.93;5.00;;;;;16.10;95952.00;;;;5014327;28;20193;-61
2023/05/23 04:37:32;;;;;;;5.43;4.90;;;;;16.10;95945.00;;;;5014691;28;20663;-61
2023/05/23 04:40:00;;;;;;;5.73;5.03;;;;;16.10;95947.00;;;;5014922;28;20263;-62
2023/05/23 04:42:28;;;;;;;5.83;5.33;;;;;16.10;95952.00;;;;5014907;28;20209;-60
2023/05/23 04:44:57;;;;;;;5.97;5.20;;;;;15.90;95946.00;;;;5014709;28;20679;-60
2023/05/23 04:47:27;;;;;;;8.00;6.13;;;;;15.90;95960.00;;;;5015148;28;20216;-60
2023/05/23 04:49:56;;;;;;;5.60;5.20;;;;;15.90;95955.00;;;;5014472;28;20664;-59
2023/05/23 04:52:24;;;;;;;4.90;4.60;;;;;15.90;95961.00;;;;5014634;28;20241;-59
2023/05/23 04:54:52;;;;;;;9.23;7.13;;;;;16.00;95967.00;;;;5014512;28;20202;-60
2023/05/23 04:57:21;;;;;;;6.13;5.57;;;;;15.90;95970.00;;;;5015163;28;20218;-61
2023/05/23 04:59:49;;;;;;;6.37;5.80;;;;;15.80;95976.00;;;;5014320;28;20726;-61
2023/05/23 05:02:16;;;;;;;7.20;6.50;;;;;15.90;95974.00;;;;5014146;28;20312;-62
2023/05/23 05:04:44;;;;;;;16.80;6.87;;;;;16.00;95976.00;;;;5014257;28;20189;-61
2023/05/23 05:07:11;;;;;;;7.33;6.27;;;;;16.00;95982.00;;;;5014279;28;20189;-61
2023/05/23 05:09:39;;;;;;;7.40;5.63;;;;;15.90;95984.00;;;;5014456;28;20205;-60
2023/05/23 05:12:07;;;;;;;7.40;5.83;;;;;15.90;95989.00;;;;5014038;28;20217;-60
2023/05/23 05:14:35;;;;;;;6.33;5.80;;;;;15.90;95984.00;;;;5014091;28;20205;-60
2023/05/23 05:17:03;;;;;;;9.07;5.37;;;;;15.80;95990.00;;;;5013948;28;20210;-60
2023/05/23 05:19:30;;;;;;;7.17;5.70;;;;;15.90;95986.00;;;;5013923;28;20197;-61
2023/05/23 05:21:58;;;;;;;4.77;4.23;;;;;15.90;95989.00;;;;5013930;28;20217;-60
2023/05/23 05:24:26;;;;;;;7.17;6.33;;;;;15.90;95990.00;;;;5013935;28;20199;-60
2023/05/23 05:26:54;;;;;;;9.07;5.70;;;;;15.70;95994.00;;;;5014140;28;20196;-61
2023/05/23 05:29:21;;;;;;;9.90;7.53;;;;;15.80;95993.00;;;;5013823;28;20244;-60
2023/05/23 05:31:50;;;;;;;11.63;5.93;;;;;15.90;95999.00;;;;5013845;28;20229;-60
2023/05/23 05:34:18;;;;;;;5.97;5.50;;;;;15.80;96001.00;;;;5012462;28;20258;-60
2023/05/23 05:36:46;;;;;;;7.07;6.40;;;;;15.70;96004.00;;;;5013660;28;20213;-60
2023/05/23 05:39:14;;;;;;;6.37;5.87;;;;;15.80;96005.00;;;;5013669;28;20231;-60
2023/05/23 05:41:42;;;;;;;7.20;6.60;;;;;15.80;96001.00;;;;5013916;28;20213;-60
2023/05/23 05:44:09;;;;;;;7.47;6.87;;;;;15.70;96003.00;;;;5013761;28;20610;-60
2023/05/23 05:46:37;;;;;;;6.07;5.47;;;;;15.60;96002.00;;;;5014076;28;20201;-60
2023/05/23 05:49:06;;;;;;;5.70;5.30;;;;;15.70;96001.00;;;;5013865;28;20204;-60
2023/05/23 05:51:33;;;;;;;8.03;6.27;;;;;15.70;96001.00;;;;5013519;28;20572;-60
2023/05/23 05:54:00;;;;;;;5.57;5.07;;;;;15.70;95995.00;;;;5013536;28;20197;-60
2023/05/23 05:56:28;;;;;;;7.67;6.97;;;;;15.70;95996.00;;;;5013643;28;20248;-60
2023/05/23 05:58:55;;;;;;;8.17;7.23;;;;;15.80;95999.00;;;;5013508;28;20193;-61
2023/05/23 06:01:24;;;;;;;6.50;6.00;;;;;15.90;96001.00;;;;5013992;28;20225;-60
2023/05/23 06:03:51;;;;;;;6.83;5.73;;;;;15.80;96002.00;;;;5013404;28;20220;-60
2023/05/23 06:06:20;;;;;;;6.07;5.50;;;;;15.80;95996.00;;;;5013107;28;20660;-58
2023/05/23 06:08:48;;;;;;;9.53;5.37;;;;;15.80;95998.00;;;;5010748;28;20275;-60
2023/05/23 06:11:15;;;;;;;6.47;5.97;;;;;15.80;95997.00;;;;5010985;28;20216;-60
2023/05/23 06:13:43;;;;;;;7.60;6.90;;;;;15.90;95996.00;;;;5011758;28;20758;-60
2023/05/23 06:16:10;;;;;;;5.40;4.43;;;;;15.90;95999.00;;;;5013654;28;20216;-61
2023/05/23 06:18:39;;;;;;;6.57;5.87;;;;;15.90;95995.00;;;;5011941;28;20311;-58
2023/05/23 06:21:06;;;;;;;6.50;5.90;;;;;16.00;95994.00;;;;5011064;28;20316;-62
2023/05/23 06:23:35;;;;;;;5.50;5.10;;;;;16.30;95996.00;;;;5025693;28;20209;-61
2023/05/23 06:26:06;;;;;;;5.70;5.20;;;;;16.20;95997.00;;;;5030972;28;20690;-60
2023/05/23 06:28:34;;;;;;;6.30;5.70;;;;;16.30;96002.00;;;;5031398;28;20200;-61
2023/05/23 06:31:01;;;;;;;5.17;4.67;;;;;16.10;96005.00;;;;5030482;28;20706;-62
2023/05/23 06:33:30;;;;;;;5.13;4.73;;;;;16.10;96013.00;;;;5031168;28;20200;-61
2023/05/23 06:35:57;;;;;;;7.07;6.17;;;;;16.00;96011.00;;;;5029258;28;20312;-61
2023/05/23 06:38:29;;;;;;;6.63;5.63;;;;;15.90;96010.00;;;;5009069;28;20707;-61
2023/05/23 06:40:58;;;;;;;4.50;4.10;;;;;16.10;96017.00;;;;5011025;28;20249;-62
2023/05/23 06:43:25;;;;;;;4.80;4.40;;;;;16.00;96017.00;;;;5011015;28;20202;-62
2023/05/23 06:45:53;;;;;;;4.10;3.80;;;;;16.00;96023.00;;;;5010859;28;20255;-62
2023/05/23 06:48:21;;;;;;;5.47;5.03;;;;;16.10;96029.00;;;;5011041;28;20205;-60
2023/05/23 06:50:48;;;;;;;4.90;4.37;;;;;16.10;96025.00;;;;5010555;28;20225;-60
2023/05/23 06:53:17;;;;;;;5.93;4.80;;;;;16.10;96031.00;;;;5011174;28;20193;-60
2023/05/23 06:55:44;;;;;;;6.90;6.30;;;;;16.20;96031.00;;;;5009179;28;20672;-60
2023/05/23 06:58:13;;;;;;;10.67;6.17;;;;;16.20;96039.00;;;;5014598;28;20696;-59
2023/05/23 07:00:41;;;;;;;6.37;5.87;;;;;16.10;96033.00;;;;5014375;28;20229;-59
2023/05/23 07:03:08;;;;;;;5.57;4.80;;;;;16.00;96039.00;;;;5011875;28;20197;-59
2023/05/23 07:05:36;;;;;;;4.33;4.03;;;;;15.80;96047.00;;;;5014361;28;20205;-60
2023/05/23 07:08:03;;;;;;;6.20;4.77;;;;;15.90;96046.00;;;;5013977;28;20193;-60
2023/05/23 07:10:33;;;;;;;5.50;5.10;;;;;15.90;96046.00;;;;5014266;28;20213;-59
2023/05/23 07:13:00;;;;;;;5.07;4.57;;;;;15.80;96058.00;;;;5013837;28;20296;-59
2023/05/23 07:15:29;;;;;;;4.73;4.23;;;;;15.70;96057.00;;;;5012871;28;20854;-60
2023/05/23 07:17:57;;;;;;;5.40;4.90;;;;;15.80;96057.00;;;;5032363;28;20216;-60
2023/05/23 07:20:24;;;;;;;4.93;4.53;;;;;15.90;96063.00;;;;5033691;28;20232;-60
2023/05/23 07:22:52;;;;;;;6.37;5.20;;;;;15.70;96063.00;;;;5018705;28;20205;-60
2023/05/23 07:25:21;;;;;;;7.87;5.77;;;;;15.60;96067.00;;;;5014556;28;20209;-59
2023/05/23 07:27:48;;;;;;;3.80;3.50;;;;;15.60;96068.00;;;;5013813;28;20197;-61
2023/05/23 07:30:16;;;;;;;5.53;5.00;;;;;15.60;96074.00;;;;5013839;28;20190;-61
2023/05/23 07:32:45;;;;;;;7.70;5.53;;;;;15.70;96072.00;;;;5013890;28;20198;-61
2023/05/23 07:35:12;;;;;;;6.00;5.43;;;;;15.70;96071.00;;;;5013906;28;20197;-62
2023/05/23 07:37:40;;;;;;;5.70;4.20;;;;;15.60;96072.00;;;;5013331;28;20714;-61
2023/05/23 07:40:09;;;;;;;16.90;6.70;;;;;15.70;96069.00;;;;5014212;28;20572;-61
2023/05/23 07:42:36;;;;;;;4.17;3.87;;;;;15.70;96076.00;;;;5014189;28;20198;-61
2023/05/23 07:45:04;;;;;;;5.10;4.27;;;;;15.70;96070.00;;;;5018379;28;20223;-60
2023/05/23 07:47:32;;;;;;;4.00;3.63;;;;;15.80;96067.00;;;;5033595;28;20200;-61
2023/05/23 07:50:02;;;;;;;4.57;4.13;;;;;15.90;96076.00;;;;5009524;28;20198;-60
2023/05/23 07:52:30;;;;;;;3.40;3.10;;;;;15.70;96061.00;;;;5013188;28;20256;-60
2023/05/23 07:54:58;;;;;;;4.20;3.77;;;;;15.70;96069.00;;;;5013881;28;20224;-61
2023/05/23 07:57:26;;;;;;;4.10;3.80;;;;;15.80;96067.00;;;;5012936;28;20221;-61
2023/05/23 07:59:54;;;;;;;4.87;4.43;;;;;16.20;96062.00;;;;5013726;28;20690;-60
2023/05/23 08:02:21;;;;;;;3.87;3.23;;;;;16.20;96071.00;;;;5012817;28;20221;-60
2023/05/23 08:04:49;;;;;;;3.27;2.83;;;;;16.30;96070.00;;;;5013329;28;20205;-60
2023/05/23 08:07:18;;;;;;;3.23;3.03;;;;;16.60;96074.00;;;;5012997;28;20208;-61
2023/05/23 08:09:46;;;;;;;2.47;2.37;;;;;16.70;96064.00;;;;5027975;28;20236;-61
2023/05/23 08:12:13;;;;;;;8.37;3.27;;;;;16.80;96070.00;;;;5031561;28;20231;-61
2023/05/23 08:14:41;;;;;;;3.00;2.80;;;;;16.80;96075.00;;;;5032363;28;20205;-61
2023/05/23 08:17:08;;;;;;;2.10;2.00;;;;;16.80;96078.00;;;;5032564;28;20221;-61
2023/05/23 08:19:36;;;;;;;9.70;4.10;;;;;16.80;96078.00;;;;5031813;28;20343;-63
2023/05/23 08:22:04;;;;;;;1.80;1.70;;;;;16.70;96085.00;;;;5031826;28;20228;-61
2023/05/23 08:24:33;;;;;;;2.53;2.33;;;;;16.60;96089.00;;;;5013358;28;20281;-61
2023/05/23 08:27:01;;;;;;;2.37;2.27;;;;;16.40;96097.00;;;;5012490;28;20193;-61
2023/05/23 08:29:28;;;;;;;2.90;2.67;;;;;16.30;96098.00;;;;5012757;28;20197;-61
2023/05/23 08:31:56;;;;;;;3.73;2.97;;;;;16.30;96095.00;;;;5011506;28;20225;-62
2023/05/23 08:34:23;;;;;;;3.10;2.90;;;;;16.30;96093.00;;;;5012631;28;20291;-61
2023/05/23 08:36:51;;;;;;;3.60;3.20;;;;;16.40;96096.00;;;;5012595;28;20213;-60
2023/05/23 08:39:18;;;;;;;3.20;2.53;;;;;16.60;96085.00;;;;5012559;28;20203;-60
2023/05/23 08:41:47;;;;;;;2.33;1.77;;;;;16.60;96094.00;;;;5012552;28;20285;-61
2023/05/23 08:44:15;;;;;;;5.20;3.77;;;;;16.50;96097.00;;;;5012761;28;20194;-61
2023/05/23 08:46:48;;;;;;;2.73;2.53;;;;;16.50;96107.00;;;;5012616;28;20212;-61
2023/05/23 08:49:18;;;;;;;3.17;2.97;;;;;16.50;96121.00;;;;5012367;28;20729;-61
2023/05/23 08:51:46;;;;;;;2.57;2.43;;;;;16.30;96116.00;;;;5012586;28;20589;-61
2023/05/23 08:54:14;;;;;;;3.20;2.90;;;;;16.30;96114.00;;;;5012500;28;20197;-61
2023/05/23 08:56:43;;;;;;;3.90;3.43;;;;;16.50;96116.00;;;;5012359;28;20225;-61
2023/05/23 08:59:12;;;;;;;5.20;3.43;;;;;16.70;96117.00;;;;5012337;28;20289;-61
2023/05/23 09:01:41;;;;;;;2.53;2.07;;;;;16.80;96122.00;;;;5012125;28;20291;-61
2023/05/23 09:04:10;;;;;;;2.87;2.67;;;;;17.00;96112.00;;;;5012218;28;20197;-61
2023/05/23 09:06:37;;;;;;;3.70;2.67;;;;;17.10;96115.00;;;;5012077;28;20204;-62
2023/05/23 09:09:05;;;;;;;3.40;3.10;;;;;17.10;96117.00;;;;5012102;28;20587;-61
2023/05/23 09:11:32;;;;;;;3.80;3.50;;;;;17.00;96114.00;;;;5012356;28;20231;-61
2023/05/23 09:14:00;;;;;;;3.27;2.97;;;;;17.00;96124.00;;;;5012042;28;20206;-61
2023/05/23 09:16:34;;;;;;;3.70;3.30;;;;;17.10;96127.00;;;;5011952;28;20198;-61
2023/05/23 09:19:11;;;;;;;2.80;2.23;;;;;17.00;96129.00;;;;5007615;28;20593;-61
2023/05/23 09:21:43;;;;;;;2.73;2.37;;;;;16.90;96136.00;;;;5008386;28;20220;-61
2023/05/23 09:24:10;;;;;;;2.20;2.10;;;;;17.20;96126.00;;;;5011910;28;20660;-61
2023/05/23 09:26:38;;;;;;;5.30;3.33;;;;;16.70;96137.00;;;;5011929;28;20224;-61
2023/05/23 09:29:07;;;;;;;6.87;2.73;;;;;16.70;96130.00;;;;5012083;28;20522;-61
2023/05/23 09:31:35;;;;;;;3.23;2.27;;;;;16.90;96134.00;;;;5011671;28;20220;-61
2023/05/23 09:34:03;;;;;;;3.00;2.80;;;;;17.00;96133.00;;;;5011877;28;20197;-61
2023/05/23 09:36:32;;;;;;;2.40;2.20;;;;;17.10;96141.00;;;;5011658;28;20203;-62
2023/05/23 09:39:04;;;;;;;1.97;1.77;;;;;17.30;96136.00;;;;5011662;28;20676;-61
2023/05/23 09:41:34;;;;;;;3.67;3.10;;;;;17.40;96130.00;;;;5011605;28;20291;-61
2023/05/23 09:44:06;;;;;;;1.57;1.50;;;;;17.60;96138.00;;;;5011684;28;20201;-61
2023/05/23 09:46:38;;;;;;;1.77;1.67;;;;;17.60;96141.00;;;;5011728;28;20284;-61
2023/05/23 09:49:17;;;;;;;1.73;1.63;;;;;18.00;96144.00;;;;5011908;28;20193;-61
2023/05/23 09:51:56;;;;;;;2.17;2.07;;;;;18.10;96138.00;;;;5008304;28;20217;-61
2023/05/23 09:54:24;;;;;;;3.10;2.90;;;;;18.20;96134.00;;;;5009870;28;20204;-61
2023/05/23 09:56:54;;;;;;;3.53;2.70;;;;;18.50;96128.00;;;;5024419;28;20219;-61
2023/05/23 09:59:24;;;;;;;2.17;2.07;;;;;18.50;96128.00;;;;5030993;28;20196;-61
2023/05/23 10:01:57;;;;;;;2.23;2.03;;;;;18.90;96142.00;;;;5031029;28;20608;-62
2023/05/23 10:04:28;;;;;;;4.40;2.60;;;;;18.60;96139.00;;;;5031534;28;20650;-61
2023/05/23 10:07:00;;;;;;;3.57;2.90;;;;;18.10;96136.00;;;;5030982;28;20189;-61
2023/05/23 10:09:32;;;;;;;2.10;1.70;;;;;18.20;96131.00;;;;5007475;28;20190;-61
2023/05/23 10:12:38;;;;;;;10.83;3.70;;;;;17.60;96141.00;;;;5031360;28;20232;-61
2023/05/23 10:15:08;;;;;;;3.17;2.87;;;;;17.20;96141.00;;;;5008100;28;20671;-60
2023/05/23 10:17:51;;;;;;;2.63;2.23;;;;;17.20;96140.00;;;;5011113;28;20213;-61
2023/05/23 10:20:25;;;;;;;3.20;2.63;;;;;17.20;96139.00;;;;5009975;28;20204;-60
2023/05/23 10:22:54;;;;;;;2.67;2.30;;;;;17.00;96140.00;;;;5011327;28;20189;-60
2023/05/23 10:25:21;;;;;;;3.30;1.97;;;;;17.40;96145.00;;;;5006779;28;20216;-59
2023/05/23 10:27:57;;;;;;;2.77;2.57;;;;;17.60;96142.00;;;;5006752;28;20201;-60
2023/05/23 10:30:25;;;;;;;2.53;2.37;;;;;17.70;96142.00;;;;5007909;28;20227;-58
2023/05/23 10:32:55;;;;;;;2.87;2.67;;;;;17.40;96150.00;;;;5029235;28;20201;-58
2023/05/23 10:35:32;;;;;;;3.03;2.83;;;;;17.70;96148.00;;;;5034716;28;20197;-59
2023/05/23 10:38:04;;;;;;;2.03;1.93;;;;;18.20;96125.00;;;;5025569;28;20212;-58
2023/05/23 10:40:43;;;;;;;11.20;2.87;;;;;18.80;96133.00;;;;5034872;28;20319;-60
2023/05/23 10:43:17;;;;;;;3.67;3.30;;;;;19.20;96139.00;;;;5015399;28;20201;-61
2023/05/23 10:45:48;;;;;;;2.50;2.30;;;;;19.30;96130.00;;;;5010484;28;20200;-62
2023/05/23 10:48:34;;;;;;;2.93;2.73;;;;;19.90;96115.00;;;;5015599;28;20185;-62
2023/05/23 10:51:06;;;;;;;3.90;1.83;;;;;20.40;96134.00;;;;5032521;28;20220;-61
2023/05/23 10:53:36;;;;;;;1.90;1.80;;;;;20.30;96131.00;;;;5034706;28;20207;-61
2023/05/23 10:56:07;;;;;;;5.13;2.53;;;;;20.50;96128.00;;;;5019314;28;20239;-61
2023/05/23 10:58:35;;;;;;;2.13;1.97;;;;;20.80;96128.00;;;;5010564;28;20276;-60
2023/05/23 11:01:06;;;;;;;5.60;2.30;;;;;19.80;96133.00;;;;5014000;28;20225;-60
2023/05/23 11:03:38;;;;;;;6.63;2.63;;;;;19.70;96132.00;;;;5014751;28;20716;-60
2023/05/23 11:06:06;;;;;;;1.53;1.43;;;;;20.00;96145.00;;;;5034521;28;20212;-60
2023/05/23 11:08:44;;;;;;;3.90;2.23;;;;;20.00;96144.00;;;;5034143;28;20655;-60
2023/05/23 11:11:12;;;;;;;2.37;2.20;;;;;20.10;96138.00;;;;5034098;28;20707;-61
2023/05/23 11:13:59;;;;;;;1.67;1.57;;;;;20.10;96129.00;;;;5034121;28;20207;-61
2023/05/23 11:16:31;;;;;;;2.13;1.80;;;;;20.30;96147.00;;;;5010453;28;20231;-61
2023/05/23 11:19:26;;;;;;;3.13;1.60;;;;;20.10;96141.00;;;;5014061;28;20217;-61
2023/05/23 11:21:57;;;;;;;2.57;2.40;;;;;19.90;96155.00;;;;5023596;28;20216;-61
2023/05/23 11:24:44;;;;;;;1.53;1.43;;;;;20.10;96147.00;;;;5012761;28;20193;-61
2023/05/23 11:27:13;;;;;;;1.73;1.63;;;;;20.10;96144.00;;;;5014345;28;20288;-61
2023/05/23 11:29:40;;;;;;;1.87;1.77;;;;;20.10;96148.00;;;;5033793;28;20284;-61
2023/05/23 11:32:12;;;;;;;3.57;1.57;;;;;19.50;96149.00;;;;5034053;28;20213;-61
2023/05/23 11:34:41;;;;;;;2.70;2.07;;;;;19.80;96135.00;;;;5033415;28;20255;-61
2023/05/23 11:37:10;;;;;;;2.13;2.03;;;;;20.20;96144.00;;;;5033967;28;20193;-61
2023/05/23 11:39:39;;;;;;;1.97;1.77;;;;;20.10;96137.00;;;;5018971;28;20197;-62
2023/05/23 11:42:06;;;;;;;2.33;2.07;;;;;20.30;96130.00;;;;5013807;28;20213;-62
2023/05/23 11:44:34;;;;;;;1.73;1.63;;;;;19.30;96135.00;;;;5013444;28;20284;-62
2023/05/23 11:47:02;;;;;;;1.10;1.10;;;;;18.90;96139.00;;;;5012816;28;20698;-61
2023/05/23 11:49:31;;;;;;;1.83;1.73;;;;;19.00;96147.00;;;;5013353;28;20197;-62
2023/05/23 11:52:01;;;;;;;1.70;1.60;;;;;19.40;96149.00;;;;5033977;28;20590;-62
2023/05/23 11:54:29;;;;;;;2.00;1.83;;;;;19.00;96151.00;;;;5033430;28;20197;-62
2023/05/23 11:56:57;;;;;;;1.53;1.43;;;;;19.10;96144.00;;;;5033255;28;20197;-62
2023/05/23 11:59:26;;;;;;;1.70;1.60;;;;;19.00;96148.00;;;;5032927;28;20217;-62
2023/05/23 12:01:53;;;;;;;1.67;1.30;;;;;18.70;96146.00;;;;5031662;28;20228;-62
2023/05/23 12:04:21;;;;;;;2.57;1.43;;;;;18.60;96138.00;;;;5033126;28;20208;-62
2023/05/23 12:06:49;;;;;;;1.10;1.10;;;;;18.80;96147.00;;;;5025295;28;20202;-61
2023/05/23 12:09:18;;;;;;;1.50;1.40;;;;;19.00;96149.00;;;;5032983;28;20247;-62
2023/05/23 12:11:49;;;;;;;1.30;1.30;;;;;19.20;96145.00;;;;5033160;28;20223;-62
2023/05/23 12:14:18;;;;;;;1.63;1.53;;;;;19.80;96143.00;;;;5033026;28;20612;-62
2023/05/23 12:16:46;;;;;;;0.93;0.93;;;;;19.60;96137.00;;;;5032940;28;20197;-62
2023/05/23 12:19:14;;;;;;;1.43;1.33;;;;;20.20;96131.00;;;;5031344;28;20217;-62
2023/05/23 12:21:44;;;;;;;1.07;1.07;;;;;19.70;96123.00;;;;5032671;28;20221;-62
2023/05/23 12:24:20;;;;;;;1.27;1.20;;;;;20.00;96134.00;;;;5033228;28;20204;-62
2023/05/23 12:26:52;;;;;;;1.37;1.33;;;;;19.50;96135.00;;;;5029672;28;20197;-62
2023/05/23 12:29:21;;;;;;;1.07;1.07;;;;;19.70;96134.00;;;;5013228;28;20192;-62